PWSweather.com
Personal Weather Stations
Station Observations
COONRAPIDS
Minneapolis, MN 55433

Minneapolis, MN 55433

Lat: 45.187721, Lon: -93.36828

Elevation: 898

Station Type: Davis Vantage Pro 2

High Low Average
Temperature 4.2°F-15.4°C -12.1°F-24.5°C -5.2°F-20.7°C
Dew Point -8.9°F-22.7°C -17.8°F-27.7°C -13.4°F-25.2°C
Winds 2.3 mph 3.7 kmh Calm Calm Calm NWCalm NW
Wind Gusts 5.8 mph9.3 kmh -- --
Humidity 76% 52% 67%
Pressure 30.83 in1044.0 mb 30.68 in1038.9 mb -
Precipitation 0.00 in0.0 mm - -
Hour Temp Dew Point Humidity Winds Wind Gusts Pressure Precip Precip Rate Daily Precip Total
12:00 AM -4.1°F-20.1°C -13.2°F-25.1°C 64% Calm Calm -- 30.76 in1041.7 mb - 0.00 in0.0 mm 0.00 in0.0 mm
12:10 AM -4.3°F-20.2°C -13.4°F-25.2°C 64% 1.2 mph NW1.9 kmh NW 2.3 mph3.7 kmh 30.75 in1041.3 mb - 0.00 in0.0 mm 0.00 in0.0 mm
12:20 AM -4.5°F-20.3°C -13.6°F-25.3°C 64% 1.2 mph NW1.9 kmh NW 3.5 mph5.6 kmh 30.75 in1041.3 mb - 0.00 in0.0 mm 0.00 in0.0 mm
12:30 AM -4.8°F-20.4°C -13.6°F-25.3°C 65% 1.2 mph NW1.9 kmh NW 3.5 mph5.6 kmh 30.75 in1041.3 mb - 0.00 in0.0 mm 0.00 in0.0 mm
12:40 AM -5.0°F-20.6°C -13.8°F-25.4°C 65% 2.3 mph NW3.7 kmh NW 3.5 mph5.6 kmh 30.75 in1041.3 mb - 0.00 in0.0 mm 0.00 in0.0 mm
12:50 AM -5.3°F-20.7°C -14.0°F-25.6°C 65% Calm Calm -- 30.75 in1041.3 mb - 0.00 in0.0 mm 0.00 in0.0 mm
01:00 AM -5.4°F-20.8°C -14.2°F-25.7°C 65% 2.3 mph NW3.7 kmh NW 5.8 mph9.3 kmh 30.75 in1041.3 mb - 0.00 in0.0 mm 0.00 in0.0 mm
01:10 AM -5.6°F-20.9°C -14.4°F-25.8°C 65% 1.2 mph NW1.9 kmh NW 3.5 mph5.6 kmh 30.75 in1041.3 mb - 0.00 in0.0 mm 0.00 in0.0 mm
01:20 AM -5.9°F-21.1°C -14.3°F-25.7°C 66% 1.2 mph NW1.9 kmh NW 3.5 mph5.6 kmh 30.75 in1041.3 mb - 0.00 in0.0 mm 0.00 in0.0 mm
01:30 AM -6.2°F-21.2°C -14.6°F-25.9°C 66% 1.2 mph NW1.9 kmh NW 2.3 mph3.7 kmh 30.76 in1041.7 mb - 0.00 in0.0 mm 0.00 in0.0 mm
01:40 AM -6.3°F-21.3°C -14.8°F-26.0°C 66% 1.2 mph NW1.9 kmh NW 2.3 mph3.7 kmh 30.76 in1041.7 mb - 0.00 in0.0 mm 0.00 in0.0 mm
01:50 AM -6.6°F-21.4°C -14.7°F-25.9°C 67% Calm Calm 1.2 mph1.9 kmh 30.76 in1041.7 mb - 0.00 in0.0 mm 0.00 in0.0 mm
02:00 AM -6.8°F-21.6°C -14.9°F-26.1°C 67% Calm Calm -- 30.76 in1041.7 mb - 0.00 in0.0 mm 0.00 in0.0 mm
02:10 AM -6.9°F-21.6°C -15.0°F-26.1°C 67% Calm Calm 2.3 mph3.7 kmh 30.76 in1041.7 mb - 0.00 in0.0 mm 0.00 in0.0 mm
02:20 AM -7.0°F-21.7°C -14.8°F-26.0°C 68% Calm Calm -- 30.76 in1041.7 mb - 0.00 in0.0 mm 0.00 in0.0 mm
02:30 AM -7.2°F-21.8°C -14.9°F-26.1°C 68% Calm Calm 2.3 mph3.7 kmh 30.76 in1041.7 mb - 0.00 in0.0 mm 0.00 in0.0 mm
02:40 AM -7.2°F-21.8°C -15.0°F-26.1°C 68% Calm Calm 2.3 mph3.7 kmh 30.77 in1042.0 mb - 0.00 in0.0 mm 0.00 in0.0 mm
02:50 AM -7.4°F-21.9°C -15.2°F-26.2°C 68% Calm Calm -- 30.77 in1042.0 mb - 0.00 in0.0 mm 0.00 in0.0 mm
03:00 AM -7.5°F-21.9°C -15.0°F-26.1°C 69% Calm Calm -- 30.77 in1042.0 mb - 0.00 in0.0 mm 0.00 in0.0 mm
03:10 AM -7.6°F-22.0°C -15.1°F-26.2°C 69% Calm Calm -- 30.77 in1042.0 mb - 0.00 in0.0 mm 0.00 in0.0 mm
03:20 AM -7.8°F-22.1°C -15.3°F-26.3°C 69% Calm Calm -- 30.78 in1042.3 mb - 0.00 in0.0 mm 0.00 in0.0 mm
03:30 AM -8.1°F-22.3°C -15.6°F-26.4°C 69% Calm Calm -- 30.78 in1042.3 mb - 0.00 in0.0 mm 0.00 in0.0 mm
03:40 AM -8.3°F-22.4°C -15.5°F-26.4°C 70% Calm Calm -- 30.78 in1042.3 mb - 0.00 in0.0 mm 0.00 in0.0 mm
03:50 AM -8.4°F-22.4°C -15.3°F-26.3°C 71% Calm Calm -- 30.78 in1042.3 mb - 0.00 in0.0 mm 0.00 in0.0 mm
04:00 AM -8.4°F-22.4°C -15.2°F-26.2°C 71% Calm Calm -- 30.78 in1042.3 mb - 0.00 in0.0 mm 0.00 in0.0 mm
04:10 AM -8.3°F-22.4°C -15.2°F-26.2°C 71% Calm Calm -- 30.78 in1042.3 mb - 0.00 in0.0 mm 0.00 in0.0 mm
04:20 AM -8.4°F-22.4°C -15.3°F-26.3°C 71% Calm Calm -- 30.78 in1042.3 mb - 0.00 in0.0 mm 0.00 in0.0 mm
04:30 AM -8.5°F-22.5°C -15.4°F-26.3°C 71% Calm Calm -- 30.78 in1042.3 mb - 0.00 in0.0 mm 0.00 in0.0 mm
04:40 AM -8.7°F-22.6°C -15.5°F-26.4°C 71% Calm Calm -- 30.79 in1042.7 mb - 0.00 in0.0 mm 0.00 in0.0 mm
04:50 AM -8.9°F-22.7°C -15.8°F-26.6°C 71% Calm Calm -- 30.79 in1042.7 mb - 0.00 in0.0 mm 0.00 in0.0 mm
05:00 AM -9.0°F-22.8°C -15.6°F-26.4°C 72% Calm Calm 2.3 mph3.7 kmh 30.79 in1042.7 mb - 0.00 in0.0 mm 0.00 in0.0 mm
05:10 AM -9.0°F-22.8°C -15.6°F-26.4°C 72% Calm Calm -- 30.79 in1042.7 mb - 0.00 in0.0 mm 0.00 in0.0 mm
05:20 AM -9.1°F-22.8°C -15.7°F-26.5°C 72% Calm Calm -- 30.79 in1042.7 mb - 0.00 in0.0 mm 0.00 in0.0 mm
05:30 AM -9.2°F-22.9°C -15.8°F-26.6°C 72% Calm Calm -- 30.80 in1043.0 mb - 0.00 in0.0 mm 0.00 in0.0 mm
05:40 AM -9.4°F-23.0°C -16.0°F-26.7°C 72% Calm Calm -- 30.80 in1043.0 mb - 0.00 in0.0 mm 0.00 in0.0 mm
05:50 AM -9.6°F-23.1°C -16.1°F-26.7°C 72% Calm Calm -- 30.80 in1043.0 mb - 0.00 in0.0 mm 0.00 in0.0 mm
06:00 AM -9.8°F-23.2°C -16.1°F-26.7°C 73% Calm Calm -- 30.80 in1043.0 mb - 0.00 in0.0 mm 0.00 in0.0 mm
06:10 AM -9.9°F-23.3°C -16.2°F-26.8°C 73% Calm Calm -- 30.80 in1043.0 mb - 0.00 in0.0 mm 0.00 in0.0 mm
06:20 AM -10.2°F-23.4°C -16.5°F-26.9°C 73% Calm Calm -- 30.80 in1043.0 mb - 0.00 in0.0 mm 0.00 in0.0 mm
06:30 AM -10.3°F-23.5°C -16.3°F-26.8°C 74% Calm Calm -- 30.80 in1043.0 mb - 0.00 in0.0 mm 0.00 in0.0 mm
06:40 AM -10.4°F-23.6°C -16.4°F-26.9°C 74% Calm Calm -- 30.80 in1043.0 mb - 0.00 in0.0 mm 0.00 in0.0 mm
06:50 AM -10.7°F-23.7°C -16.7°F-27.1°C 74% Calm Calm -- 30.80 in1043.0 mb - 0.00 in0.0 mm 0.00 in0.0 mm
07:00 AM -11.0°F-23.9°C -16.9°F-27.2°C 74% Calm Calm -- 30.80 in1043.0 mb - 0.00 in0.0 mm 0.00 in0.0 mm
07:10 AM -11.2°F-24.0°C -17.2°F-27.3°C 74% Calm Calm -- 30.81 in1043.3 mb - 0.00 in0.0 mm 0.00 in0.0 mm
07:20 AM -11.4°F-24.1°C -17.2°F-27.3°C 75% Calm Calm -- 30.81 in1043.3 mb - 0.00 in0.0 mm 0.00 in0.0 mm
07:30 AM -11.6°F-24.2°C -17.3°F-27.4°C 75% Calm Calm -- 30.81 in1043.3 mb - 0.00 in0.0 mm 0.00 in0.0 mm
07:40 AM -11.9°F-24.4°C -17.6°F-27.6°C 75% Calm Calm -- 30.81 in1043.3 mb - 0.00 in0.0 mm 0.00 in0.0 mm
07:50 AM -12.1°F-24.5°C -17.8°F-27.7°C 75% Calm Calm -- 30.81 in1043.3 mb - 0.00 in0.0 mm 0.00 in0.0 mm
08:00 AM -12.1°F-24.5°C -17.8°F-27.7°C 75% Calm Calm -- 30.81 in1043.3 mb - 0.00 in0.0 mm 0.00 in0.0 mm
08:10 AM -12.1°F-24.5°C -17.5°F-27.5°C 76% Calm Calm -- 30.81 in1043.3 mb - 0.00 in0.0 mm 0.00 in0.0 mm
08:20 AM -11.6°F-24.2°C -17.0°F-27.2°C 76% Calm Calm -- 30.81 in1043.3 mb - 0.00 in0.0 mm 0.00 in0.0 mm
08:30 AM -11.1°F-23.9°C -16.6°F-27.0°C 76% Calm Calm -- 30.81 in1043.3 mb - 0.00 in0.0 mm 0.00 in0.0 mm
08:40 AM -10.6°F-23.7°C -16.1°F-26.7°C 76% Calm Calm -- 30.81 in1043.3 mb - 0.00 in0.0 mm 0.00 in0.0 mm
08:50 AM -10.1°F-23.4°C -15.6°F-26.4°C 76% Calm Calm -- 30.81 in1043.3 mb - 0.00 in0.0 mm 0.00 in0.0 mm
09:00 AM -9.1°F-22.8°C -14.6°F-25.9°C 76% Calm Calm 1.2 mph1.9 kmh 30.82 in1043.7 mb - 0.00 in0.0 mm 0.00 in0.0 mm
09:10 AM -8.4°F-22.4°C -14.2°F-25.7°C 75% Calm Calm -- 30.82 in1043.7 mb - 0.00 in0.0 mm 0.00 in0.0 mm
09:20 AM -7.8°F-22.1°C -13.9°F-25.5°C 74% 1.2 mph NW1.9 kmh NW 1.2 mph1.9 kmh 30.82 in1043.7 mb - 0.00 in0.0 mm 0.00 in0.0 mm
09:30 AM -7.3°F-21.8°C -13.9°F-25.5°C 72% Calm Calm -- 30.82 in1043.7 mb - 0.00 in0.0 mm 0.00 in0.0 mm
09:40 AM -7.0°F-21.7°C -13.9°F-25.5°C 71% Calm Calm -- 30.82 in1043.7 mb - 0.00 in0.0 mm 0.00 in0.0 mm
09:50 AM -6.6°F-21.4°C -13.5°F-25.3°C 71% Calm Calm -- 30.82 in1043.7 mb - 0.00 in0.0 mm 0.00 in0.0 mm
10:00 AM -6.1°F-21.2°C -13.4°F-25.2°C 70% Calm Calm -- 30.83 in1044.0 mb - 0.00 in0.0 mm 0.00 in0.0 mm
10:10 AM -5.6°F-20.9°C -12.9°F-24.9°C 70% Calm Calm 1.2 mph1.9 kmh 30.83 in1044.0 mb - 0.00 in0.0 mm 0.00 in0.0 mm
10:20 AM -5.3°F-20.7°C -12.9°F-24.9°C 69% Calm Calm -- 30.83 in1044.0 mb - 0.00 in0.0 mm 0.00 in0.0 mm
10:30 AM -4.5°F-20.3°C -12.4°F-24.7°C 68% Calm Calm -- 30.83 in1044.0 mb - 0.00 in0.0 mm 0.00 in0.0 mm
10:40 AM -4.1°F-20.1°C -12.3°F-24.6°C 67% Calm Calm -- 30.83 in1044.0 mb - 0.00 in0.0 mm 0.00 in0.0 mm
10:50 AM -3.6°F-19.8°C -11.8°F-24.3°C 67% Calm Calm -- 30.82 in1043.7 mb - 0.00 in0.0 mm 0.00 in0.0 mm
11:00 AM -3.4°F-19.7°C -11.9°F-24.4°C 66% Calm Calm -- 30.81 in1043.3 mb - 0.00 in0.0 mm 0.00 in0.0 mm
11:10 AM -2.7°F-19.3°C -11.6°F-24.2°C 65% Calm Calm -- 30.81 in1043.3 mb - 0.00 in0.0 mm 0.00 in0.0 mm
11:20 AM -2.2°F-19.0°C -11.4°F-24.1°C 64% Calm Calm -- 30.80 in1043.0 mb - 0.00 in0.0 mm 0.00 in0.0 mm
11:30 AM -1.0°F-18.3°C -10.6°F-23.7°C 63% Calm Calm -- 30.80 in1043.0 mb - 0.00 in0.0 mm 0.00 in0.0 mm
11:40 AM -1.2°F-18.4°C -11.4°F-24.1°C 61% Calm Calm -- 30.80 in1043.0 mb - 0.00 in0.0 mm 0.00 in0.0 mm
11:50 AM -0.1°F-17.8°C -10.4°F-23.6°C 61% Calm Calm -- 30.80 in1043.0 mb - 0.00 in0.0 mm 0.00 in0.0 mm
12:00 PM 0.5°F-17.5°C -10.5°F-23.6°C 59% Calm Calm -- 30.79 in1042.7 mb - 0.00 in0.0 mm 0.00 in0.0 mm
12:10 PM 1.0°F-17.2°C -10.0°F-23.3°C 59% Calm Calm -- 30.79 in1042.7 mb - 0.00 in0.0 mm 0.00 in0.0 mm
12:20 PM 0.6°F-17.4°C -10.7°F-23.7°C 58% 1.2 mph W1.9 kmh W 3.5 mph5.6 kmh 30.78 in1042.3 mb - 0.00 in0.0 mm 0.00 in0.0 mm
12:30 PM 0.8°F-17.3°C -10.5°F-23.6°C 58% Calm Calm 2.3 mph3.7 kmh 30.78 in1042.3 mb - 0.00 in0.0 mm 0.00 in0.0 mm
12:40 PM 1.0°F-17.2°C -10.7°F-23.7°C 57% 1.2 mph WSW1.9 kmh WSW 3.5 mph5.6 kmh 30.77 in1042.0 mb - 0.00 in0.0 mm 0.00 in0.0 mm
12:50 PM 1.1°F-17.2°C -10.6°F-23.7°C 57% 1.2 mph W1.9 kmh W 3.5 mph5.6 kmh 30.77 in1042.0 mb - 0.00 in0.0 mm 0.00 in0.0 mm
01:00 PM 1.5°F-16.9°C -10.2°F-23.4°C 57% Calm Calm -- 30.77 in1042.0 mb - 0.00 in0.0 mm 0.00 in0.0 mm
01:10 PM 1.6°F-16.9°C -10.9°F-23.8°C 55% Calm Calm 2.3 mph3.7 kmh 30.76 in1041.7 mb - 0.00 in0.0 mm 0.00 in0.0 mm
01:20 PM 2.0°F-16.7°C -10.1°F-23.4°C 56% Calm Calm -- 30.76 in1041.7 mb - 0.00 in0.0 mm 0.00 in0.0 mm
01:30 PM 2.1°F-16.6°C -10.4°F-23.6°C 55% Calm Calm 3.5 mph5.6 kmh 30.75 in1041.3 mb - 0.00 in0.0 mm 0.00 in0.0 mm
01:40 PM 2.3°F-16.5°C -10.2°F-23.4°C 55% Calm Calm -- 30.75 in1041.3 mb - 0.00 in0.0 mm 0.00 in0.0 mm
01:50 PM 2.8°F-16.2°C -9.8°F-23.2°C 55% Calm Calm 3.5 mph5.6 kmh 30.75 in1041.3 mb - 0.00 in0.0 mm 0.00 in0.0 mm
02:00 PM 2.8°F-16.2°C -9.8°F-23.2°C 55% Calm Calm -- 30.75 in1041.3 mb - 0.00 in0.0 mm 0.00 in0.0 mm
02:10 PM 3.1°F-16.1°C -9.8°F-23.2°C 54% Calm Calm -- 30.74 in1041.0 mb - 0.00 in0.0 mm 0.00 in0.0 mm
02:20 PM 3.3°F-15.9°C -10.0°F-23.3°C 53% Calm Calm -- 30.74 in1041.0 mb - 0.00 in0.0 mm 0.00 in0.0 mm
02:30 PM 3.1°F-16.1°C -9.8°F-23.2°C 54% Calm Calm -- 30.74 in1041.0 mb - 0.00 in0.0 mm 0.00 in0.0 mm
02:40 PM 4.0°F-15.6°C -9.0°F-22.8°C 54% Calm Calm -- 30.74 in1041.0 mb - 0.00 in0.0 mm 0.00 in0.0 mm
02:50 PM 3.9°F-15.6°C -9.8°F-23.2°C 52% Calm Calm 2.3 mph3.7 kmh 30.74 in1041.0 mb - 0.00 in0.0 mm 0.00 in0.0 mm
03:00 PM 4.1°F-15.5°C -9.3°F-22.9°C 53% Calm Calm -- 30.74 in1041.0 mb - 0.00 in0.0 mm 0.00 in0.0 mm
03:10 PM 4.2°F-15.4°C -9.2°F-22.9°C 53% Calm Calm -- 30.74 in1041.0 mb - 0.00 in0.0 mm 0.00 in0.0 mm
03:20 PM 3.9°F-15.6°C -9.5°F-23.1°C 53% Calm Calm -- 30.74 in1041.0 mb - 0.00 in0.0 mm 0.00 in0.0 mm
03:30 PM 3.5°F-15.8°C -9.1°F-22.8°C 55% Calm Calm -- 30.74 in1041.0 mb - 0.00 in0.0 mm 0.00 in0.0 mm
03:40 PM 3.3°F-15.9°C -9.3°F-22.9°C 55% Calm Calm -- 30.74 in1041.0 mb - 0.00 in0.0 mm 0.00 in0.0 mm
03:50 PM 3.3°F-15.9°C -8.9°F-22.7°C 56% Calm Calm -- 30.74 in1041.0 mb - 0.00 in0.0 mm 0.00 in0.0 mm
04:00 PM 3.1°F-16.1°C -9.1°F-22.8°C 56% Calm Calm -- 30.74 in1041.0 mb - 0.00 in0.0 mm 0.00 in0.0 mm
04:10 PM 3.0°F-16.1°C -9.2°F-22.9°C 56% Calm Calm -- 30.74 in1041.0 mb - 0.00 in0.0 mm 0.00 in0.0 mm
04:20 PM 2.9°F-16.2°C -8.9°F-22.7°C 57% Calm Calm -- 30.74 in1041.0 mb - 0.00 in0.0 mm 0.00 in0.0 mm
04:30 PM 2.8°F-16.2°C -9.0°F-22.8°C 57% Calm Calm -- 30.74 in1041.0 mb - 0.00 in0.0 mm 0.00 in0.0 mm
04:40 PM 2.5°F-16.4°C -9.3°F-22.9°C 57% Calm Calm -- 30.74 in1041.0 mb - 0.00 in0.0 mm 0.00 in0.0 mm
04:50 PM 2.2°F-16.6°C -9.6°F-23.1°C 57% Calm Calm -- 30.74 in1041.0 mb - 0.00 in0.0 mm 0.00 in0.0 mm
05:00 PM 1.6°F-16.9°C -9.8°F-23.2°C 58% Calm Calm -- 30.74 in1041.0 mb - 0.00 in0.0 mm 0.00 in0.0 mm
05:10 PM 0.8°F-17.3°C -10.2°F-23.4°C 59% Calm Calm -- 30.73 in1040.6 mb - 0.00 in0.0 mm 0.00 in0.0 mm
05:20 PM 0.2°F-17.7°C -10.5°F-23.6°C 60% Calm Calm -- 30.73 in1040.6 mb - 0.00 in0.0 mm 0.00 in0.0 mm
05:30 PM -0.7°F-18.2°C -10.9°F-23.8°C 61% Calm Calm -- 30.73 in1040.6 mb - 0.00 in0.0 mm 0.00 in0.0 mm
05:40 PM -1.4°F-18.6°C -10.9°F-23.8°C 63% Calm Calm -- 30.73 in1040.6 mb - 0.00 in0.0 mm 0.00 in0.0 mm
05:50 PM -2.0°F-18.9°C -11.2°F-24.0°C 64% Calm Calm -- 30.73 in1040.6 mb - 0.00 in0.0 mm 0.00 in0.0 mm
06:00 PM -2.5°F-19.2°C -11.1°F-23.9°C 66% Calm Calm -- 30.73 in1040.6 mb - 0.00 in0.0 mm 0.00 in0.0 mm
06:10 PM -3.0°F-19.4°C -11.5°F-24.2°C 66% Calm Calm -- 30.73 in1040.6 mb - 0.00 in0.0 mm 0.00 in0.0 mm
06:20 PM -3.5°F-19.7°C -11.4°F-24.1°C 68% Calm Calm -- 30.72 in1040.3 mb - 0.00 in0.0 mm 0.00 in0.0 mm
06:30 PM -4.0°F-20.0°C -11.9°F-24.4°C 68% Calm Calm -- 30.72 in1040.3 mb - 0.00 in0.0 mm 0.00 in0.0 mm
06:40 PM -4.4°F-20.2°C -12.0°F-24.4°C 69% Calm Calm -- 30.72 in1040.3 mb - 0.00 in0.0 mm 0.00 in0.0 mm
06:50 PM -4.8°F-20.4°C -12.1°F-24.5°C 70% Calm Calm -- 30.72 in1040.3 mb - 0.00 in0.0 mm 0.00 in0.0 mm
07:00 PM -5.1°F-20.6°C -12.1°F-24.5°C 71% Calm Calm -- 30.72 in1040.3 mb - 0.00 in0.0 mm 0.00 in0.0 mm
07:10 PM -5.5°F-20.8°C -12.5°F-24.7°C 71% Calm Calm -- 30.72 in1040.3 mb - 0.00 in0.0 mm 0.00 in0.0 mm
07:20 PM -5.8°F-21.0°C -12.5°F-24.7°C 72% Calm Calm -- 30.72 in1040.3 mb - 0.00 in0.0 mm 0.00 in0.0 mm
07:30 PM -6.1°F-21.2°C -12.5°F-24.7°C 73% Calm Calm -- 30.72 in1040.3 mb - 0.00 in0.0 mm 0.00 in0.0 mm
07:40 PM -6.4°F-21.3°C -12.8°F-24.9°C 73% Calm Calm -- 30.72 in1040.3 mb - 0.00 in0.0 mm 0.00 in0.0 mm
07:50 PM -6.6°F-21.4°C -12.7°F-24.8°C 74% Calm Calm -- 30.72 in1040.3 mb - 0.00 in0.0 mm 0.00 in0.0 mm
08:00 PM -6.8°F-21.6°C -12.9°F-24.9°C 74% Calm Calm -- 30.71 in1040.0 mb - 0.00 in0.0 mm 0.00 in0.0 mm
08:10 PM -7.0°F-21.7°C -13.1°F-25.1°C 74% Calm Calm -- 30.71 in1040.0 mb - 0.00 in0.0 mm 0.00 in0.0 mm
08:20 PM -7.5°F-21.9°C -13.6°F-25.3°C 74% Calm Calm -- 30.71 in1040.0 mb - 0.00 in0.0 mm 0.00 in0.0 mm
08:30 PM -7.7°F-22.1°C -13.5°F-25.3°C 75% Calm Calm -- 30.71 in1040.0 mb - 0.00 in0.0 mm 0.00 in0.0 mm
08:40 PM -7.7°F-22.1°C -13.6°F-25.3°C 75% Calm Calm -- 30.71 in1040.0 mb - 0.00 in0.0 mm 0.00 in0.0 mm
08:50 PM -7.9°F-22.2°C -13.8°F-25.4°C 75% Calm Calm -- 30.71 in1040.0 mb - 0.00 in0.0 mm 0.00 in0.0 mm
09:00 PM -8.2°F-22.3°C -14.0°F-25.6°C 75% Calm Calm -- 30.70 in1039.6 mb - 0.00 in0.0 mm 0.00 in0.0 mm
09:10 PM -8.5°F-22.5°C -14.3°F-25.7°C 75% Calm Calm -- 30.70 in1039.6 mb - 0.00 in0.0 mm 0.00 in0.0 mm
09:20 PM -8.7°F-22.6°C -14.5°F-25.8°C 75% Calm Calm -- 30.70 in1039.6 mb - 0.00 in0.0 mm 0.00 in0.0 mm
09:30 PM -9.0°F-22.8°C -14.8°F-26.0°C 75% Calm Calm -- 30.70 in1039.6 mb - 0.00 in0.0 mm 0.00 in0.0 mm
09:40 PM -9.2°F-22.9°C -15.0°F-26.1°C 75% Calm Calm -- 30.70 in1039.6 mb - 0.00 in0.0 mm 0.00 in0.0 mm
09:50 PM -9.4°F-23.0°C -15.2°F-26.2°C 75% Calm Calm -- 30.70 in1039.6 mb - 0.00 in0.0 mm 0.00 in0.0 mm
10:00 PM -9.5°F-23.1°C -15.3°F-26.3°C 75% Calm Calm -- 30.69 in1039.3 mb - 0.00 in0.0 mm 0.00 in0.0 mm
10:10 PM -9.8°F-23.2°C -15.6°F-26.4°C 75% Calm Calm -- 30.69 in1039.3 mb - 0.00 in0.0 mm 0.00 in0.0 mm
10:20 PM -10.0°F-23.3°C -15.7°F-26.5°C 75% Calm Calm -- 30.69 in1039.3 mb - 0.00 in0.0 mm 0.00 in0.0 mm
10:30 PM -10.1°F-23.4°C -15.9°F-26.6°C 75% Calm Calm -- 30.69 in1039.3 mb - 0.00 in0.0 mm 0.00 in0.0 mm
10:40 PM -10.3°F-23.5°C -16.0°F-26.7°C 75% Calm Calm -- 30.69 in1039.3 mb - 0.00 in0.0 mm 0.00 in0.0 mm
10:50 PM -10.5°F-23.6°C -16.2°F-26.8°C 75% Calm Calm -- 30.69 in1039.3 mb - 0.00 in0.0 mm 0.00 in0.0 mm
11:00 PM -10.6°F-23.7°C -16.3°F-26.8°C 75% Calm Calm -- 30.69 in1039.3 mb - 0.00 in0.0 mm 0.00 in0.0 mm
11:10 PM -10.7°F-23.7°C -16.2°F-26.8°C 76% Calm Calm -- 30.68 in1038.9 mb - 0.00 in0.0 mm 0.00 in0.0 mm
11:20 PM -10.6°F-23.7°C -16.1°F-26.7°C 76% Calm Calm -- 30.68 in1038.9 mb - 0.00 in0.0 mm 0.00 in0.0 mm
11:30 PM -10.5°F-23.6°C -16.0°F-26.7°C 76% Calm Calm -- 30.68 in1038.9 mb - 0.00 in0.0 mm 0.00 in0.0 mm
11:40 PM -10.4°F-23.6°C -15.9°F-26.6°C 76% Calm Calm -- 30.68 in1038.9 mb - 0.00 in0.0 mm 0.00 in0.0 mm
11:50 PM -10.4°F-23.6°C -15.9°F-26.6°C 76% Calm Calm -- 30.68 in1038.9 mb - 0.00 in0.0 mm 0.00 in0.0 mm